KCDW/CDW METAR and TAF weather

Enter ICAO airport designator
Station Type Date Time Source
KCDW METAR 2022/01/23 11:53 UTC NOAA

KCDW 231153Z 22003KT 10SM CLR M06/M16 A2999 RMK AO2 SLP165 T10561156 11039 21061 56006


Station Type Date Time Source
KCDW Decoded METAR 2022/01/23 11:53 UTC NOAA

CALDWELL ESSEX COUNTY AIRPORT , NJ, United States (KCDW) 40-53N 074-17W 64M
Jan 23, 2022 - 06:53 AM EST / 2022.01.23 1153 UTC
Wind: from the SW (220 degrees) at 3 MPH (3 KT):0
Visibility: 10 mile(s):0
Sky conditions: clear
Temperature: 21.9 F (-5.6 C)
Dew Point: 3.9 F (-15.6 C)
Relative Humidity: 45%
Pressure (altimeter): 29.99 in. Hg (1015 hPa)
Pressure tendency: 0.02 inches (0.6 hPa) lower than three hours ago
ob: KCDW 231153Z 22003KT 10SM CLR M06/M16 A2999 RMK AO2 SLP165 T10561156 11039 21061 56006
cycle: 12

Station Type Date Time Source
KCDW TAF UTC NOAA

Error!

Example: see airport list